HTDK1: Little Arkansas River At Hwy 50 Nr Halstead, KS

Data processed at Mon Apr 27 23:41:58 2015 Central Daylight Time


All information presented herein is the property of the government of the United States of America and may be revised or deleted at any time without prior notice.
Dissemination of this information without the expressed written consent of the Public Affairs Office, Tulsa District U.S. Army Corps of Engineers is strictly prohibited.
These data are gathered electronically and, as presented, have not undergone any form of quality control. These data are not guaranteed to be valid or correct.
Go to home page.
Go to station list.
Go to station map.

Upstream stations:

Previous Day
Next Day
Current Day

Display graphics.
Display DCP transmissions.


    
    SHEF ID:       HTDK1     Little Arkansas River At Hwy 50 Nr Halstead, KS
    STATION TYPE:  STREAM GAGE
    Regulation Limits:  Stage = -901.00, Flow =    -901
    
                   PRECIP     STAGE  RIV-FLOW  WTR-TEMP   DIS-OXY        PH   CONDUCT TURBIDITY   VOLTAGE  BAT-LOAD
                   INCHES      FEET       CFS     DEG-F      MG/L        PH     US/CM       NTU     VOLTS     VOLTS
                     GOES      GOES      GOES      GOES      GOES      GOES      GOES      GOES      GOES      GOES
       (Cen)
    04/27 01:00      0.00      5.94        21     59.43      6.82      7.69       661     72.40     12.60     12.30
    04/27 02:00      0.00      5.94        21     59.27      6.74      7.68       582     74.80     12.60     12.24
    04/27 03:00      0.00      5.94        21     59.11      6.66      7.67       651     74.00     12.60     12.24
    04/27 04:00      0.00      5.93        20     58.89      6.60      7.66       445     76.80     12.60     12.24
    04/27 05:00      0.00      5.93        20     58.68      6.56      7.65       417     76.30     12.60     12.24
    04/27 06:00      0.00      5.93        20     58.41      6.52      7.65       396     78.50     12.60     12.24
    04/27 07:00      0.00      5.93        20     58.08      6.53      7.64       407     75.10     12.60     12.24
    04/27 08:00      0.00      5.93        20     57.81      6.54      7.64       409     74.30     12.80     12.24
    04/27 09:00      0.00      5.92     19.50     57.69      6.60      7.65       399     75.70     13.50     12.42
    04/27 10:00      0.00      5.93     20.28     57.78      6.69      7.65       392     74.20     13.80     13.12
    04/27 11:00      0.00      5.92     19.50     58.10      6.81      7.73       696     73.50     13.70     12.54
    04/27 12:00      0.00      5.93     20.28     58.51      6.92      7.70       695     73.70     13.70     13.36
    04/27 13:00      0.00      5.92     19.50     58.78      7.05      7.70       695     73.20     13.80     13.36
    04/27 14:00      0.00      5.91     18.75     59.25      7.18      7.70       693     72.50     13.70     13.42
    04/27 15:00      0.00      5.92     19.50     59.67      7.26      7.71       690     74.90     13.90     13.36
    04/27 16:00      0.00      5.92     19.50     60.60      7.34      7.71       686     74.50     13.70     13.48
    04/27 17:00      0.00      5.91     18.75     60.84      7.36      7.71       681     77.80     13.60     13.36
    04/27 18:00      0.00      5.91     18.75     60.98      7.36      7.71       674     78.60     13.40     13.18
    04/27 19:00      0.00      5.90     18.01     61.07      7.31      7.70       666     81.80     13.20     13.12
    04/27 20:00      0.00      5.91     18.75     61.03      7.26      7.69       657     84.20     12.90     12.89
    04/27 21:00      0.00      5.90     18.01     60.94      7.15      7.67       647     87.20     12.90     12.60
    04/27 22:00      0.00      5.90     18.01     60.89      7.03      7.66       636     91.10     12.90     12.54
    04/27 23:00      0.00      5.90     18.01     60.89      6.94      7.64       626     89.80     12.80     12.54
    04/28 00:00      ----      ----      ----      ----      ----      ----      ----      ----      ----      ----